Time;durP1;ratioP1;P1;durP2;ratioP2;P2;SDS_P1;SDS_P2;PMS_P1;PMS_P2;Temp;Humidity;BMP_temperature;BMP_pressure;BME280_temperature;BME280_humidity;BME280_pressure;Samples;Min_cycle;Max_cycle;Signal;HPM_P1;HPM_P2
2022/03/14 00:00:48;;;;;;;32.67;7.07;;;;;;;;;;5140561;27;20123;-69
2022/03/14 00:03:14;;;;;;;45.33;7.85;;;;;;;;;;5139585;27;20050;-69
2022/03/14 00:05:43;;;;;;;30.67;7.57;;;;;;;;;;5140705;27;20372;-69
2022/03/14 00:08:13;;;;;;;68.28;20.00;;;;;;;;;;5140677;27;20023;-69
2022/03/14 00:10:45;;;;;;;55.85;16.67;;;;;;;;;;5140592;27;20022;-70
2022/03/14 00:13:16;;;;;;;48.22;12.32;;;;;;;;;;5140544;27;20031;-70
2022/03/14 00:15:44;;;;;;;35.92;8.88;;;;;;;;;;5140453;27;20042;-69
2022/03/14 00:18:13;;;;;;;39.90;8.27;;;;;;;;;;5140530;27;20035;-69
2022/03/14 00:20:41;;;;;;;36.10;9.30;;;;;;;;;;5140411;27;20015;-69
2022/03/14 00:23:09;;;;;;;33.95;9.38;;;;;;;;;;5139196;27;20148;-69
2022/03/14 00:25:37;;;;;;;45.60;10.65;;;;;;;;;;5139143;27;20015;-69
2022/03/14 00:28:04;;;;;;;48.28;13.65;;;;;;;;;;5140290;27;20027;-69
2022/03/14 00:30:32;;;;;;;55.17;16.67;;;;;;;;;;5140229;27;20019;-69
2022/03/14 00:32:59;;;;;;;48.47;16.58;;;;;;;;;;5140127;27;20050;-69
2022/03/14 00:35:27;;;;;;;43.85;13.98;;;;;;;;;;5140105;27;20027;-69
2022/03/14 00:37:55;;;;;;;57.40;12.57;;;;;;;;;;5139010;27;20024;-70
2022/03/14 00:40:23;;;;;;;48.60;13.48;;;;;;;;;;5138771;27;20023;-69
2022/03/14 00:42:50;;;;;;;42.95;11.65;;;;;;;;;;5139805;27;20102;-69
2022/03/14 00:45:21;;;;;;;55.85;12.98;;;;;;;;;;5138886;27;20408;-70
2022/03/14 00:47:50;;;;;;;54.58;14.90;;;;;;;;;;5139780;27;20466;-70
2022/03/14 00:50:17;;;;;;;63.60;14.38;;;;;;;;;;5139407;27;20058;-70
2022/03/14 00:52:45;;;;;;;47.95;14.77;;;;;;;;;;5138713;27;20019;-69
2022/03/14 00:55:13;;;;;;;67.55;15.65;;;;;;;;;;5139639;27;20026;-69
2022/03/14 00:57:40;;;;;;;58.67;13.98;;;;;;;;;;5139601;27;20098;-69
2022/03/14 01:00:07;;;;;;;52.15;12.65;;;;;;;;;;5139151;27;20058;-70
2022/03/14 01:02:37;;;;;;;56.50;13.00;;;;;;;;;;5137566;27;20045;-70
2022/03/14 01:05:05;;;;;;;55.13;13.27;;;;;;;;;;5138239;27;20031;-69
2022/03/14 01:07:34;;;;;;;44.55;12.63;;;;;;;;;;5138300;27;20028;-70
2022/03/14 01:10:03;;;;;;;51.35;13.32;;;;;;;;;;5139456;27;20375;-69
2022/03/14 01:12:32;;;;;;;42.15;11.35;;;;;;;;;;5138357;27;20019;-69
2022/03/14 01:15:00;;;;;;;46.75;14.23;;;;;;;;;;5139175;27;20023;-69
2022/03/14 01:17:28;;;;;;;56.33;18.83;;;;;;;;;;5138250;27;20119;-69
2022/03/14 01:19:55;;;;;;;55.72;17.88;;;;;;;;;;5138930;27;20127;-69
2022/03/14 01:22:22;;;;;;;64.13;21.02;;;;;;;;;;5139015;27;20044;-69
2022/03/14 01:24:50;;;;;;;54.35;20.80;;;;;;;;;;5137750;27;20027;-69
2022/03/14 01:27:17;;;;;;;66.90;20.83;;;;;;;;;;5138996;27;20019;-70
2022/03/14 01:29:45;;;;;;;53.63;20.48;;;;;;;;;;5137882;27;20025;-70
2022/03/14 01:32:13;;;;;;;54.38;21.42;;;;;;;;;;5138863;27;20023;-67
2022/03/14 01:34:40;;;;;;;63.63;22.67;;;;;;;;;;5137768;27;20026;-69
2022/03/14 01:37:08;;;;;;;69.43;22.77;;;;;;;;;;5137687;27;20023;-74
2022/03/14 01:39:36;;;;;;;57.30;19.08;;;;;;;;;;5137582;27;20301;-73
2022/03/14 01:42:07;;;;;;;66.25;19.80;;;;;;;;;;5138722;27;20042;-70
2022/03/14 01:44:35;;;;;;;61.45;19.17;;;;;;;;;;5138646;27;20423;-73
2022/03/14 01:47:02;;;;;;;51.30;18.58;;;;;;;;;;5138544;27;20121;-73
2022/03/14 01:49:30;;;;;;;53.92;22.17;;;;;;;;;;5137484;27;20015;-74
2022/03/14 01:51:59;;;;;;;59.28;23.58;;;;;;;;;;5137329;27;20106;-74
2022/03/14 01:54:26;;;;;;;56.78;24.65;;;;;;;;;;5138335;27;20068;-71
2022/03/14 01:56:54;;;;;;;50.58;22.55;;;;;;;;;;5137083;27;20023;-70
2022/03/14 01:59:22;;;;;;;60.17;23.60;;;;;;;;;;5138264;27;20019;-72
2022/03/14 02:01:49;;;;;;;61.80;25.70;;;;;;;;;;5137757;27;20047;-73
2022/03/14 02:04:17;;;;;;;63.80;25.40;;;;;;;;;;5068731;27;20030;-69
2022/03/14 02:06:46;;;;;;;288.58;123.63;;;;;;;;;;5013045;28;20114;-68
2022/03/14 02:09:14;;;;;;;247.77;100.97;;;;;;;;;;5021044;27;20124;-69
2022/03/14 02:12:02;;;;;;;326.08;140.60;;;;;;;;;;5040127;27;20032;-70
2022/03/14 02:14:35;;;;;;;281.70;111.45;;;;;;;;;;5055398;28;20046;-71
2022/03/14 02:17:02;;;;;;;413.63;175.77;;;;;;;;;;5070246;28;20057;-65
2022/03/14 02:19:30;;;;;;;317.33;152.73;;;;;;;;;;5077557;28;20494;-65
2022/03/14 02:22:00;;;;;;;295.38;135.40;;;;;;;;;;5033804;28;20031;-66
2022/03/14 02:24:31;;;;;;;220.50;117.88;;;;;;;;;;4992329;28;20027;-66
2022/03/14 02:26:59;;;;;;;78.88;37.42;;;;;;;;;;4992574;28;20030;-65
2022/03/14 02:29:26;;;;;;;99.82;48.30;;;;;;;;;;4992161;28;20438;-65
2022/03/14 02:31:54;;;;;;;83.75;40.25;;;;;;;;;;4992034;28;20049;-65
2022/03/14 02:34:22;;;;;;;87.68;36.85;;;;;;;;;;4992535;28;20026;-64
2022/03/14 02:36:49;;;;;;;73.55;32.03;;;;;;;;;;4992361;28;20041;-71
2022/03/14 02:39:17;;;;;;;74.07;28.48;;;;;;;;;;4992403;28;20080;-69
2022/03/14 02:41:45;;;;;;;68.38;26.40;;;;;;;;;;4992295;28;20034;-70
